METAR stanice u blizini

 

LYBE - Beograd / Surčin, Srbija
Ažurirano: 07/12/2019 14:30
Slaba kiša, Mist, Pretežno oblačno
Slaba kiša, Mist, Pretežno oblačno
 Pravac vetra SI
Vetar: SI 9 km/h
Temperatura: 8°C
Osećaj hladnoće: 6°C
Tačka rose: 6°C
Vlažnost: 87%
Pritisak: 1017 hPa
Pregled: Slaba kiša, Mist
Oblaci: Mostly Cloudy
Vidljivost: 3 km
Cloud details: Mostly Cloudy 1372 m
2019/12/07 13:30 LYBE 071330Z 04005KT 3000 -RA BR BKN045 08/06 Q1017 NOSIG
LYBT - Beograd / Batajnica, Srbija
Ažurirano: 07/12/2019 14:30
Mist, Delimično oblačno
Mist, Delimično oblačno
 Pravac vetra S
Vetar: S 6 km/h
Temperatura: 7°C
Tačka rose: 6°C
Vlažnost: 93%
Pritisak: 1017 hPa
Pregled: Mist
Oblaci: Partly Cloudy
Vidljivost: 4 km
Cloud details: Partly Cloudy 1219 m
2019/12/07 13:30 LYBT 071330Z 01003KT 340V040 4000 BR SCT040 07/06 Q1017 NOSIG
LYVR - Vršac, Srbija
Ažurirano: 07/12/2019 14:30
Mostly Cloudy
Mostly Cloudy
 Pravac vetra ZSZ
Vetar: ZSZ 6 km/h
Temperatura: 9°C
Tačka rose: 7°C
Vlažnost: 87%
Pritisak: 1017 hPa
Oblaci: Mostly Cloudy
Vidljivost: 10 km
Cloud details: Mostly Cloudy 1219 m
2019/12/07 13:30 LYVR 071330Z 29003KT 270V330 9999 BKN040 09/07 Q1017 NOSIG
 
LYKV - Lađevci, Srbija
Ažurirano: 07/12/2019 14:30
Partly Cloudy
Partly Cloudy
 Pravac vetra varies
Vetar: varies 4 km/h
Temperatura: 11°C
Tačka rose: 7°C
Vlažnost: 77%
Pritisak: 1017 hPa
Oblaci: Partly Cloudy
Vidljivost: 8 km
2019/12/07 13:30 LYKV 071330Z VRB02KT 8000 NSC 11/07 Q1017 NOSIG
LYNI - Niš, Srbija
Ažurirano: 07/12/2019 14:30
Partly Cloudy
Partly Cloudy
 Pravac vetra JI
Vetar: JI 7 km/h
Temperatura: 8°C
Osećaj hladnoće: 7°C
Tačka rose: 5°C
Vlažnost: 82%
Pritisak: 1018 hPa
Oblaci: Partly Cloudy
Vidljivost: 10 km
Cloud details: Partly Cloudy 1524 m
2019/12/07 13:30 LYNI 071330Z 14004KT 100V180 9999 SCT050 08/05 Q1018 NOSIG
BKPR - Priština, Srbija
Ažurirano: 07/12/2019 14:30
Mist, Pretežno oblačno
Mist, Pretežno oblačno
 Pravac vetra calm
Vetar: Tišina
Temperatura: 5°C
Tačka rose: 3°C
Vlažnost: 87%
Pritisak: 1018 hPa
Pregled: Mist
Oblaci: Mostly Cloudy
Vidljivost: 5 km
Cloud details: Partly Cloudy 305 m
Mostly Cloudy 1067 m
2019/12/07 13:30 BKPR 071330Z 00000KT 5000 BR SCT010 BKN035 05/03 Q1018 NOSIG RMK 17010095
 
LHPP - Pecs / Pogany, Hungary
Ažurirano: 07/12/2019 14:15
Mist, Oblačno
Mist, Oblačno
 Pravac vetra IJI
Vetar: IJI 2 km/h
Temperatura: 5°C
Tačka rose: 3°C
Vlažnost: 87%
Pritisak: 1017 hPa
Pregled: Mist
Oblaci: Oblačno
Vidljivost: 3 km
Cloud details: Oblačno 183 m
2019/12/07 13:15 LHPP 071315Z 12001KT 2800 BR OVC006 05/03 Q1017
LHUD - Szeged, Hungary
Ažurirano: 04/07/2019 01:45
NOT Current
Vedro
Vedro
 Pravac vetra S
Vetar: S 7 km/h
Temperatura: 18°C
Tačka rose: 13°C
Vlažnost: 73%
Pritisak: 1019 hPa
Pregled: Vedro
Vidljivost: greater than 10 km
2019/07/03 23:45 LHUD 032345Z 35004KT CAVOK 18/13 Q1019
LRTR - Timisoara, Romania
Ažurirano: 07/12/2019 14:30
Partly Cloudy
Partly Cloudy
 Pravac vetra I
Vetar: I 6 km/h
Temperatura: 6°C
Tačka rose: 4°C
Vlažnost: 87%
Pritisak: 1017 hPa
Oblaci: Partly Cloudy
Vidljivost: 10 km
Cloud details: Partly Cloudy 762 m
2019/12/07 13:30 LRTR 071330Z 08003KT 9999 SCT025 06/04 Q1017
 
LRCV - Craiova, Romania
Ažurirano: 07/12/2019 14:30
Vedro
Vedro
 Pravac vetra Z
Vetar: Z 13 km/h
Temperatura: 7°C
Osećaj hladnoće: 5°C
Tačka rose: 3°C
Vlažnost: 76%
Pritisak: 1014 hPa
Pregled: Vedro
Vidljivost: greater than 10 km
2019/12/07 13:30 LRCV 071330Z 28007KT CAVOK 07/03 Q1014
LBSF - Sofia, Bulgaria
Ažurirano: 07/12/2019 14:30
Mist, Oblačno
Mist, Oblačno
 Pravac vetra varies
Vetar: varies 2 km/h
Temperatura: 0°C
Tačka rose: 0°C
Vlažnost: 100%
Pritisak: 1017 hPa
Pregled: Mist
Oblaci: Oblačno
Vidljivost: 5 km
Cloud details: Few Clouds 335 m
Mostly Cloudy 1219 m
Oblačno 1676 m
2019/12/07 13:30 LBSF 071330Z VRB01KT 5000 BR FEW011 BKN040 OVC055 M00/M00 Q1017 NOSIG
LWSK - Skoplje, Makedonija
Ažurirano: 07/12/2019 14:30
Mostly Cloudy
Mostly Cloudy
 Pravac vetra calm
Vetar: Tišina
Temperatura: 8°C
Tačka rose: 5°C
Vlažnost: 82%
Pritisak: 1019 hPa
Oblaci: Mostly Cloudy
Vidljivost: 8 km
Cloud details: Few Clouds 457 m
Mostly Cloudy 2134 m
2019/12/07 13:30 LWSK 071330Z 00000KT 8000 FEW015 BKN070 08/05 Q1019 NOSIG
 
LYPG - Podgorica, Crna Gora
Ažurirano: 07/12/2019 14:30
Few Clouds
Few Clouds
 Pravac vetra JJI
Vetar: JJI 9 km/h
Temperatura: 14°C
Tačka rose: 8°C
Vlažnost: 67%
Pritisak: 1018 hPa
Oblaci: Few Clouds
Vidljivost: 10 km
Cloud details: Few Clouds 914 m
2019/12/07 13:30 LYPG 071330Z 16005KT 140V220 9999 FEW030 14/08 Q1018 NOSIG
LQSA - Sarajevo, Bosna i Hercegovina
Ažurirano: 07/12/2019 14:30
Mist, Pretežno oblačno
Mist, Pretežno oblačno
 Pravac vetra varies
Vetar: varies 4 km/h
Temperatura: 3°C
Tačka rose: 3°C
Vlažnost: 100%
Pritisak: 1018 hPa
Pregled: Mist
Oblaci: Mostly Cloudy
Vidljivost: 1 km
Cloud details: Partly Cloudy 122 m
Mostly Cloudy 1981 m
2019/12/07 13:30 LQSA 071330Z VRB02KT 1200 R11/0900N BR SCT004 BKN065 03/03 Q1018 NOSIG
LDOS - Osijek, Hrvatksa
Ažurirano: 07/12/2019 14:30
Vedro
Vedro
 Pravac vetra I
Vetar: I 7 km/h
Temperatura: 8°C
Osećaj hladnoće: 7°C
Tačka rose: 5°C
Vlažnost: 82%
Pritisak: 1017 hPa
Pregled: Vedro
Vidljivost: greater than 10 km
2019/12/07 13:30 LDOS 071330Z 09004KT 070V120 CAVOK 08/05 Q1017